Time;durP1;ratioP1;P1;durP2;ratioP2;P2;SDS_P1;SDS_P2;PMS_P1;PMS_P2;Temp;Humidity;BMP_temperature;BMP_pressure;BME280_temperature;BME280_humidity;BME280_pressure;Samples;Min_cycle;Max_cycle;Signal;HPM_P1;HPM_P2
2021/12/13 00:00:11;;;;;;;1.43;1.23;;;;;;;;;;4931890;29;20258;-79
2021/12/13 00:02:57;;;;;;;1.80;1.03;;;;;;;;;;4939299;29;20182;-79
2021/12/13 00:05:25;;;;;;;1.07;0.90;;;;;;;;;;4931952;29;20225;-79
2021/12/13 00:08:00;;;;;;;1.20;1.10;;;;;;;;;;4945009;28;20454;-79
2021/12/13 00:10:29;;;;;;;2.07;1.10;;;;;;;;;;4928832;29;20184;-79
2021/12/13 00:13:00;;;;;;;1.50;1.33;;;;;;;;;;4934854;29;20217;-79
2021/12/13 00:15:30;;;;;;;1.50;1.20;;;;;;;;;;4946564;28;20190;-79
2021/12/13 00:17:55;;;;;;;2.50;1.23;;;;;;;;;;4934915;29;20185;-79
2021/12/13 00:20:36;;;;;;;1.77;1.53;;;;;;;;;;4937011;29;20540;-79
2021/12/13 00:23:09;;;;;;;2.20;1.50;;;;;;;;;;4936714;29;20237;-79
2021/12/13 00:25:38;;;;;;;2.23;1.60;;;;;;;;;;4939939;29;20502;-79
2021/12/13 00:28:10;;;;;;;2.90;1.33;;;;;;;;;;4955524;28;20457;-79
2021/12/13 00:30:40;;;;;;;2.17;1.50;;;;;;;;;;4947266;28;20240;-79
2021/12/13 00:33:14;;;;;;;2.50;2.00;;;;;;;;;;4935061;29;20230;-79
2021/12/13 00:35:47;;;;;;;1.87;1.60;;;;;;;;;;4937163;29;20205;-79
2021/12/13 00:38:13;;;;;;;3.53;1.50;;;;;;;;;;4932130;29;20189;-79
2021/12/13 00:40:41;;;;;;;2.43;1.50;;;;;;;;;;4938319;28;20265;-79
2021/12/13 00:43:27;;;;;;;1.90;1.47;;;;;;;;;;4944698;28;20241;-79
2021/12/13 00:45:54;;;;;;;2.50;1.10;;;;;;;;;;4935554;28;20188;-79
2021/12/13 00:48:21;;;;;;;1.30;1.13;;;;;;;;;;4941240;29;20184;-79
2021/12/13 00:50:59;;;;;;;1.40;1.30;;;;;;;;;;4960823;28;20214;-79
2021/12/13 00:53:25;;;;;;;1.40;1.13;;;;;;;;;;4951925;29;20202;-79
2021/12/13 00:55:52;;;;;;;1.20;1.10;;;;;;;;;;4933387;29;20180;-79
2021/12/13 00:58:21;;;;;;;1.93;1.60;;;;;;;;;;4937081;29;20296;-79
2021/12/13 01:00:48;;;;;;;1.80;1.40;;;;;;;;;;4958117;28;20185;-79
2021/12/13 01:03:22;;;;;;;2.50;1.60;;;;;;;;;;4958379;28;20189;-79
2021/12/13 01:05:47;;;;;;;4.57;2.13;;;;;;;;;;4955875;28;20275;-79
2021/12/13 01:08:15;;;;;;;3.43;2.40;;;;;;;;;;4953721;28;20178;-79
2021/12/13 01:10:53;;;;;;;3.37;1.90;;;;;;;;;;4936566;29;20200;-79
2021/12/13 01:13:21;;;;;;;2.87;1.77;;;;;;;;;;4947124;28;20197;-79
2021/12/13 01:15:55;;;;;;;2.97;1.60;;;;;;;;;;4944777;28;20174;-79
2021/12/13 01:18:32;;;;;;;3.70;2.47;;;;;;;;;;4951186;28;20170;-79
2021/12/13 01:21:40;;;;;;;5.53;2.57;;;;;;;;;;4941691;28;20232;-79
2021/12/13 01:24:06;;;;;;;3.70;2.43;;;;;;;;;;4945375;29;20199;-79
2021/12/13 01:26:37;;;;;;;3.97;2.53;;;;;;;;;;4931102;29;20181;-79
2021/12/13 01:29:18;;;;;;;3.00;2.00;;;;;;;;;;4931486;29;20348;-79
2021/12/13 01:31:46;;;;;;;2.90;2.17;;;;;;;;;;4949781;28;20189;-79
2021/12/13 01:34:12;;;;;;;2.83;2.20;;;;;;;;;;4940220;28;20201;-79
2021/12/13 01:36:47;;;;;;;3.20;2.07;;;;;;;;;;4954610;28;20175;-79
2021/12/13 01:39:15;;;;;;;5.73;2.80;;;;;;;;;;4946748;28;20233;-79
2021/12/13 01:41:42;;;;;;;3.10;2.23;;;;;;;;;;4942497;29;20178;-79
2021/12/13 01:44:11;;;;;;;3.57;1.97;;;;;;;;;;4943209;28;20234;-79
2021/12/13 01:46:38;;;;;;;4.13;2.97;;;;;;;;;;4932203;29;20190;-79
2021/12/13 01:49:04;;;;;;;2.77;1.90;;;;;;;;;;4941842;29;20491;-79
2021/12/13 01:51:33;;;;;;;4.40;3.27;;;;;;;;;;4945623;28;20197;-79
2021/12/13 01:54:05;;;;;;;4.60;2.60;;;;;;;;;;4929105;29;20213;-79
2021/12/13 01:56:57;;;;;;;2.77;1.70;;;;;;;;;;4932680;29;20180;-79
2021/12/13 02:02:15;;;;;;;1.40;1.30;;;;;;;;;;4933412;29;20476;-79
2021/12/13 02:04:41;;;;;;;1.33;1.23;;;;;;;;;;4943741;28;20191;-79
2021/12/13 02:07:07;;;;;;;3.07;1.40;;;;;;;;;;4956338;28;20182;-78
2021/12/13 02:09:35;;;;;;;1.90;1.40;;;;;;;;;;4940960;29;20178;-78
2021/12/13 02:12:02;;;;;;;2.00;1.40;;;;;;;;;;4938287;29;20194;-79
2021/12/13 02:14:29;;;;;;;2.23;1.40;;;;;;;;;;4933979;29;20202;-79
2021/12/13 02:17:10;;;;;;;2.47;1.43;;;;;;;;;;4926020;29;20205;-79
2021/12/13 02:20:00;;;;;;;3.30;1.80;;;;;;;;;;4941563;28;20193;-79
2021/12/13 02:22:34;;;;;;;2.00;1.43;;;;;;;;;;4949066;28;20237;-79
2021/12/13 02:25:22;;;;;;;1.40;1.30;;;;;;;;;;4943317;28;20174;-79
2021/12/13 02:27:54;;;;;;;3.03;1.47;;;;;;;;;;4942461;29;20216;-79
2021/12/13 02:30:32;;;;;;;2.23;1.23;;;;;;;;;;4934110;29;20273;-79
2021/12/13 02:32:57;;;;;;;1.60;1.13;;;;;;;;;;4940883;29;20194;-79
2021/12/13 02:35:25;;;;;;;3.33;1.33;;;;;;;;;;4953153;28;20182;-79
2021/12/13 02:37:50;;;;;;;3.27;1.40;;;;;;;;;;4934214;29;20175;-79
2021/12/13 02:40:17;;;;;;;2.40;1.20;;;;;;;;;;4932958;29;20185;-79
2021/12/13 02:42:43;;;;;;;2.00;1.30;;;;;;;;;;4938676;28;20238;-79
2021/12/13 02:45:29;;;;;;;1.70;1.10;;;;;;;;;;4953105;28;20230;-79
2021/12/13 02:48:04;;;;;;;2.70;1.10;;;;;;;;;;4941962;29;20193;-79
2021/12/13 02:50:36;;;;;;;3.60;1.40;;;;;;;;;;4953316;28;20224;-79
2021/12/13 02:53:02;;;;;;;1.57;1.33;;;;;;;;;;4939089;29;20210;-79
2021/12/13 02:55:29;;;;;;;1.33;1.00;;;;;;;;;;4951402;28;20224;-79
2021/12/13 02:57:56;;;;;;;1.20;1.10;;;;;;;;;;4937451;28;20248;-79
2021/12/13 03:00:30;;;;;;;1.57;1.30;;;;;;;;;;4936717;28;20181;-79
2021/12/13 03:02:57;;;;;;;0.80;0.80;;;;;;;;;;4939009;29;20208;-79
2021/12/13 03:05:26;;;;;;;1.20;1.10;;;;;;;;;;4937857;29;20197;-79
2021/12/13 03:07:53;;;;;;;1.00;0.93;;;;;;;;;;4936572;28;20250;-79
2021/12/13 03:10:21;;;;;;;2.37;1.97;;;;;;;;;;4935994;29;20338;-79
2021/12/13 03:12:47;;;;;;;2.00;1.47;;;;;;;;;;4954718;28;20201;-79
2021/12/13 03:15:14;;;;;;;1.67;1.23;;;;;;;;;;4953653;28;20189;-79
2021/12/13 03:17:58;;;;;;;1.50;1.13;;;;;;;;;;4944182;28;20184;-79
2021/12/13 03:20:26;;;;;;;0.93;0.80;;;;;;;;;;4952614;28;20179;-79
2021/12/13 03:23:10;;;;;;;1.53;1.00;;;;;;;;;;4944217;28;20185;-79
2021/12/13 03:25:54;;;;;;;2.07;1.20;;;;;;;;;;4944432;28;20193;-79
2021/12/13 03:28:28;;;;;;;2.13;1.10;;;;;;;;;;4951472;28;20178;-79
2021/12/13 03:30:56;;;;;;;2.47;1.00;;;;;;;;;;4954737;28;20213;-79
2021/12/13 03:33:31;;;;;;;1.70;1.00;;;;;;;;;;4944745;29;20205;-79
2021/12/13 03:35:57;;;;;;;1.20;1.10;;;;;;;;;;4941819;28;20208;-79
2021/12/13 03:38:29;;;;;;;2.90;1.23;;;;;;;;;;4956949;28;20220;-79
2021/12/13 03:40:58;;;;;;;1.27;1.10;;;;;;;;;;4953731;28;20173;-79
2021/12/13 03:43:26;;;;;;;6.70;1.50;;;;;;;;;;4953260;28;20338;-79
2021/12/13 03:45:54;;;;;;;2.67;1.50;;;;;;;;;;4931438;29;20190;-79
2021/12/13 03:48:20;;;;;;;3.27;1.50;;;;;;;;;;4932339;29;20201;-79
2021/12/13 03:50:48;;;;;;;3.27;1.47;;;;;;;;;;4933138;29;20186;-79
2021/12/13 03:53:15;;;;;;;2.00;1.17;;;;;;;;;;4936840;28;20219;-79
2021/12/13 03:55:41;;;;;;;1.60;1.30;;;;;;;;;;4948315;28;20186;-79
2021/12/13 03:58:08;;;;;;;2.20;1.13;;;;;;;;;;4953945;28;20175;-79
2021/12/13 04:00:35;;;;;;;1.00;0.90;;;;;;;;;;4932844;29;20179;-79
2021/12/13 04:03:02;;;;;;;3.40;1.20;;;;;;;;;;4937622;29;20237;-79
2021/12/13 04:05:28;;;;;;;0.63;0.63;;;;;;;;;;4934897;29;20241;-79
2021/12/13 04:07:56;;;;;;;1.30;1.20;;;;;;;;;;4933012;28;20188;-79
2021/12/13 04:10:27;;;;;;;1.93;0.70;;;;;;;;;;4932523;29;20179;-79
2021/12/13 04:12:54;;;;;;;1.07;1.00;;;;;;;;;;4946507;28;20209;-79
2021/12/13 04:15:26;;;;;;;0.90;0.83;;;;;;;;;;4932396;29;20190;-79
2021/12/13 04:18:11;;;;;;;0.90;0.90;;;;;;;;;;4932890;29;20176;-79
2021/12/13 04:20:37;;;;;;;1.00;0.90;;;;;;;;;;4931869;29;20328;-79
2021/12/13 04:23:05;;;;;;;1.03;0.90;;;;;;;;;;4948211;28;20210;-80
2021/12/13 04:25:33;;;;;;;1.00;0.90;;;;;;;;;;4934837;29;20222;-77
2021/12/13 04:28:05;;;;;;;1.00;0.90;;;;;;;;;;4930445;29;20190;-77
2021/12/13 04:30:33;;;;;;;1.13;1.03;;;;;;;;;;4926952;29;20190;-77
2021/12/13 04:33:04;;;;;;;0.70;0.70;;;;;;;;;;4942111;29;20201;-77
2021/12/13 04:35:31;;;;;;;1.13;1.00;;;;;;;;;;4940035;29;20178;-77
2021/12/13 04:37:57;;;;;;;1.07;0.97;;;;;;;;;;4933845;29;20260;-77
2021/12/13 04:40:25;;;;;;;1.30;1.00;;;;;;;;;;4947005;28;20216;-77
2021/12/13 04:42:54;;;;;;;1.17;1.07;;;;;;;;;;4947112;29;20239;-77
2021/12/13 04:45:21;;;;;;;1.10;1.00;;;;;;;;;;4940215;29;20189;-77
2021/12/13 04:47:57;;;;;;;0.97;0.90;;;;;;;;;;4930869;29;20220;-77
2021/12/13 04:50:28;;;;;;;1.03;0.93;;;;;;;;;;4949078;28;20193;-78
2021/12/13 04:52:54;;;;;;;3.00;1.00;;;;;;;;;;4931079;29;20197;-77
2021/12/13 04:55:22;;;;;;;1.30;1.20;;;;;;;;;;4951478;28;20183;-77
2021/12/13 04:57:47;;;;;;;3.97;1.10;;;;;;;;;;4933880;29;20190;-77
2021/12/13 05:00:15;;;;;;;2.40;1.00;;;;;;;;;;4931055;29;20181;-77
2021/12/13 05:02:49;;;;;;;2.17;1.20;;;;;;;;;;4929610;29;20233;-78
2021/12/13 05:05:16;;;;;;;2.73;1.30;;;;;;;;;;4935943;28;20206;-77
2021/12/13 05:07:42;;;;;;;2.07;1.30;;;;;;;;;;4936756;29;20190;-77
2021/12/13 05:10:07;;;;;;;4.30;1.20;;;;;;;;;;4933400;29;20188;-77
2021/12/13 05:12:33;;;;;;;5.37;1.63;;;;;;;;;;4934717;29;20192;-77
2021/12/13 05:15:04;;;;;;;6.10;1.90;;;;;;;;;;4934399;29;20182;-77
2021/12/13 05:17:32;;;;;;;8.00;1.73;;;;;;;;;;4935022;29;20186;-77
2021/12/13 05:20:20;;;;;;;4.33;1.50;;;;;;;;;;4943202;28;20277;-77
2021/12/13 05:22:50;;;;;;;3.87;1.50;;;;;;;;;;4940378;28;20191;-77
2021/12/13 05:25:21;;;;;;;5.10;1.60;;;;;;;;;;4940813;29;20182;-77
2021/12/13 05:27:46;;;;;;;10.07;1.33;;;;;;;;;;4958302;28;20190;-77
2021/12/13 05:30:18;;;;;;;4.80;1.90;;;;;;;;;;4938530;29;20219;-77
2021/12/13 05:32:48;;;;;;;4.57;1.90;;;;;;;;;;4934276;29;20211;-78
2021/12/13 05:35:13;;;;;;;10.37;2.17;;;;;;;;;;4939374;29;20190;-77
2021/12/13 05:37:40;;;;;;;12.47;2.43;;;;;;;;;;4937514;28;20186;-77
2021/12/13 05:40:10;;;;;;;3.13;1.80;;;;;;;;;;4935591;29;20207;-77
2021/12/13 05:42:37;;;;;;;4.50;1.90;;;;;;;;;;4941995;29;20288;-77
2021/12/13 05:45:03;;;;;;;5.90;2.00;;;;;;;;;;4937593;29;20179;-77
2021/12/13 05:47:28;;;;;;;5.20;1.93;;;;;;;;;;4954487;28;20187;-77
2021/12/13 05:49:54;;;;;;;2.20;1.57;;;;;;;;;;4941692;28;21355;-77
2021/12/13 05:52:24;;;;;;;4.43;2.40;;;;;;;;;;4954316;28;20396;-77
2021/12/13 05:54:51;;;;;;;4.73;1.90;;;;;;;;;;4954074;28;20273;-77
2021/12/13 05:57:27;;;;;;;5.77;3.00;;;;;;;;;;4938175;28;20511;-77
2021/12/13 06:00:01;;;;;;;9.10;1.90;;;;;;;;;;4953157;29;20185;-78
2021/12/13 06:02:54;;;;;;;4.60;2.50;;;;;;;;;;4939988;28;20180;-78
2021/12/13 06:05:23;;;;;;;6.10;4.07;;;;;;;;;;4951547;28;20174;-77
2021/12/13 06:07:59;;;;;;;18.77;7.80;;;;;;;;;;4934828;28;20184;-77
2021/12/13 06:10:26;;;;;;;15.00;4.47;;;;;;;;;;4953712;28;20178;-79
2021/12/13 06:12:54;;;;;;;9.53;4.63;;;;;;;;;;4934942;28;20197;-79
2021/12/13 06:15:27;;;;;;;25.47;8.97;;;;;;;;;;4937350;29;20202;-79
2021/12/13 06:17:57;;;;;;;31.73;15.83;;;;;;;;;;4948324;28;21607;-80
2021/12/13 06:20:25;;;;;;;11.97;5.10;;;;;;;;;;4956418;28;20184;-79
2021/12/13 06:22:51;;;;;;;8.80;3.67;;;;;;;;;;4936034;29;20185;-79
2021/12/13 06:25:18;;;;;;;18.20;9.70;;;;;;;;;;4934167;29;20246;-80
2021/12/13 06:27:47;;;;;;;14.90;7.93;;;;;;;;;;4950885;29;20278;-79
2021/12/13 06:30:47;;;;;;;11.63;5.43;;;;;;;;;;4952742;28;20217;-80
2021/12/13 06:33:13;;;;;;;38.67;13.30;;;;;;;;;;4896157;29;20204;-79
2021/12/13 06:35:48;;;;;;;31.73;13.70;;;;;;;;;;4894425;29;20326;-79
2021/12/13 06:38:19;;;;;;;27.37;11.43;;;;;;;;;;4895877;29;20187;-80
2021/12/13 06:40:53;;;;;;;27.20;10.27;;;;;;;;;;4897599;29;20191;-80
2021/12/13 06:43:26;;;;;;;35.30;13.67;;;;;;;;;;4883751;29;20232;-79
2021/12/13 06:45:52;;;;;;;30.13;13.93;;;;;;;;;;4893511;29;20187;-79
2021/12/13 06:48:17;;;;;;;37.57;14.60;;;;;;;;;;4895133;29;20259;-80
2021/12/13 06:50:46;;;;;;;24.60;11.10;;;;;;;;;;4893697;29;20486;-80
2021/12/13 06:53:15;;;;;;;24.07;10.40;;;;;;;;;;4889664;29;20334;-79
2021/12/13 06:55:41;;;;;;;15.53;7.23;;;;;;;;;;4889905;29;20259;-80
2021/12/13 06:58:20;;;;;;;20.60;8.57;;;;;;;;;;4887814;29;20275;-79
2021/12/13 07:00:47;;;;;;;20.47;10.03;;;;;;;;;;4903697;29;20194;-79
2021/12/13 07:03:16;;;;;;;25.33;10.43;;;;;;;;;;4900864;29;20281;-80
2021/12/13 07:05:43;;;;;;;22.70;9.97;;;;;;;;;;4895498;29;20185;-80
2021/12/13 07:08:16;;;;;;;11.43;6.43;;;;;;;;;;4934307;28;20284;-80
2021/12/13 07:10:55;;;;;;;8.37;3.97;;;;;;;;;;4939045;28;20178;-80
2021/12/13 07:13:32;;;;;;;50.27;19.80;;;;;;;;;;4938522;29;20209;-80
2021/12/13 07:15:57;;;;;;;70.03;30.40;;;;;;;;;;4942252;28;20272;-80
2021/12/13 07:18:39;;;;;;;26.67;10.33;;;;;;;;;;4946406;29;20276;-80
2021/12/13 07:21:09;;;;;;;4.53;2.13;;;;;;;;;;4938672;29;20192;-79
2021/12/13 07:23:55;;;;;;;36.30;5.77;;;;;;;;;;4941386;28;20193;-80
2021/12/13 07:26:52;;;;;;;21.37;5.37;;;;;;;;;;4926903;28;20184;-80
2021/12/13 07:29:19;;;;;;;35.83;7.47;;;;;;;;;;4922953;28;20205;-80
2021/12/13 07:31:46;;;;;;;29.50;4.47;;;;;;;;;;4953448;28;20441;-80
2021/12/13 07:34:17;;;;;;;29.80;6.03;;;;;;;;;;4956929;28;20287;-80
2021/12/13 07:36:52;;;;;;;19.37;5.47;;;;;;;;;;4937162;28;20177;-79
2021/12/13 07:39:17;;;;;;;33.57;8.30;;;;;;;;;;4945276;28;20171;-80
2021/12/13 07:41:48;;;;;;;88.63;21.53;;;;;;;;;;4936223;29;20229;-80
2021/12/13 07:44:32;;;;;;;36.70;7.40;;;;;;;;;;4928428;29;21332;-80
2021/12/13 07:47:03;;;;;;;33.57;6.60;;;;;;;;;;4937005;28;20180;-79
2021/12/13 07:49:33;;;;;;;17.13;5.63;;;;;;;;;;4933725;29;20277;-80
2021/12/13 07:52:00;;;;;;;12.63;4.40;;;;;;;;;;4930519;29;20180;-79
2021/12/13 07:54:26;;;;;;;21.83;7.33;;;;;;;;;;4932186;29;20278;-79
2021/12/13 07:56:53;;;;;;;18.17;6.67;;;;;;;;;;4928368;29;20186;-79
2021/12/13 07:59:19;;;;;;;10.87;5.87;;;;;;;;;;4941458;28;20186;-80
2021/12/13 08:02:04;;;;;;;15.30;7.73;;;;;;;;;;4947613;28;20176;-80
2021/12/13 08:04:31;;;;;;;21.87;10.90;;;;;;;;;;4946140;29;20218;-79
2021/12/13 08:07:07;;;;;;;12.50;8.73;;;;;;;;;;4931810;29;20188;-79
2021/12/13 08:09:33;;;;;;;21.43;9.80;;;;;;;;;;4927261;29;20219;-80
2021/12/13 08:12:01;;;;;;;16.07;7.67;;;;;;;;;;4931012;29;20218;-80
2021/12/13 08:14:32;;;;;;;14.70;7.73;;;;;;;;;;4931346;29;20315;-79
2021/12/13 08:17:06;;;;;;;17.73;7.10;;;;;;;;;;4943056;28;20181;-79
2021/12/13 08:19:33;;;;;;;14.40;6.83;;;;;;;;;;4931040;29;20179;-80
2021/12/13 08:22:00;;;;;;;16.43;6.47;;;;;;;;;;4929098;29;20180;-80
2021/12/13 08:24:27;;;;;;;21.77;10.53;;;;;;;;;;4937565;28;20180;-80
2021/12/13 08:26:59;;;;;;;22.87;7.03;;;;;;;;;;4933866;29;20225;-80
2021/12/13 08:29:31;;;;;;;13.33;5.40;;;;;;;;;;4936152;29;20194;-80
2021/12/13 08:31:57;;;;;;;18.40;6.93;;;;;;;;;;4946780;29;20211;-80
2021/12/13 08:34:28;;;;;;;10.93;5.57;;;;;;;;;;4926248;29;20212;-79
2021/12/13 08:36:54;;;;;;;13.77;6.27;;;;;;;;;;4927845;29;20182;-79
2021/12/13 08:39:30;;;;;;;8.70;4.90;;;;;;;;;;4931052;29;20184;-79
2021/12/13 08:41:57;;;;;;;11.83;4.57;;;;;;;;;;4930047;29;20291;-80
2021/12/13 08:44:23;;;;;;;11.50;4.13;;;;;;;;;;4945364;28;20273;-79
2021/12/13 08:46:51;;;;;;;9.90;4.90;;;;;;;;;;4943860;29;20218;-79
2021/12/13 08:49:21;;;;;;;11.40;5.87;;;;;;;;;;4946476;29;20250;-80
2021/12/13 08:51:59;;;;;;;10.57;5.10;;;;;;;;;;4933938;29;20189;-80
2021/12/13 08:54:36;;;;;;;36.53;13.20;;;;;;;;;;4944575;28;20213;-80
2021/12/13 08:57:02;;;;;;;24.33;9.87;;;;;;;;;;4951997;28;20190;-80
2021/12/13 08:59:28;;;;;;;17.97;7.30;;;;;;;;;;4936733;29;20170;-80
2021/12/13 09:01:55;;;;;;;9.97;4.10;;;;;;;;;;4934084;29;20262;-80
2021/12/13 09:04:26;;;;;;;13.37;5.27;;;;;;;;;;4935405;29;20221;-80
2021/12/13 09:06:55;;;;;;;12.43;4.70;;;;;;;;;;4939950;28;20188;-80
2021/12/13 09:09:20;;;;;;;28.83;9.53;;;;;;;;;;4936353;29;20187;-80
2021/12/13 09:11:46;;;;;;;16.40;6.73;;;;;;;;;;4938465;29;20192;-80
2021/12/13 09:14:13;;;;;;;14.07;6.07;;;;;;;;;;4936734;29;20207;-80
2021/12/13 09:16:43;;;;;;;8.03;4.23;;;;;;;;;;4953522;28;20275;-80
2021/12/13 09:19:18;;;;;;;9.20;5.07;;;;;;;;;;4946203;28;20179;-80
2021/12/13 09:21:49;;;;;;;6.00;3.53;;;;;;;;;;4939648;28;20175;-80
2021/12/13 09:24:23;;;;;;;5.80;3.00;;;;;;;;;;4937714;29;20198;-80
2021/12/13 09:26:48;;;;;;;3.13;2.07;;;;;;;;;;4924379;29;20182;-80
2021/12/13 09:29:16;;;;;;;5.77;2.40;;;;;;;;;;4937789;29;20185;-80
2021/12/13 09:31:42;;;;;;;5.57;2.80;;;;;;;;;;4930995;29;20249;-80
2021/12/13 09:34:16;;;;;;;3.43;2.23;;;;;;;;;;4932660;29;20211;-80
2021/12/13 09:36:43;;;;;;;3.17;1.90;;;;;;;;;;4933776;29;20216;-80
2021/12/13 09:39:17;;;;;;;3.80;1.87;;;;;;;;;;4932229;29;20171;-80
2021/12/13 09:41:42;;;;;;;2.90;1.80;;;;;;;;;;4932306;29;20194;-80
2021/12/13 09:44:11;;;;;;;2.53;1.87;;;;;;;;;;4955473;28;20234;-80
2021/12/13 09:46:39;;;;;;;4.83;2.00;;;;;;;;;;4944325;28;20216;-80
2021/12/13 09:49:25;;;;;;;5.00;3.80;;;;;;;;;;4933408;29;20244;-80
2021/12/13 09:51:50;;;;;;;2.37;1.80;;;;;;;;;;4940279;28;20187;-80
2021/12/13 09:54:18;;;;;;;7.70;7.00;;;;;;;;;;4942892;29;20263;-80
2021/12/13 09:56:49;;;;;;;3.37;1.90;;;;;;;;;;4932449;29;20259;-80
2021/12/13 09:59:24;;;;;;;2.77;1.37;;;;;;;;;;4932556;29;20251;-81
2021/12/13 10:01:50;;;;;;;1.60;1.40;;;;;;;;;;4944599;29;20279;-80
2021/12/13 10:04:18;;;;;;;2.80;1.53;;;;;;;;;;4952005;29;20208;-80
2021/12/13 10:06:49;;;;;;;2.97;1.47;;;;;;;;;;4951787;28;20181;-80
2021/12/13 10:09:21;;;;;;;2.53;1.57;;;;;;;;;;4934279;29;20196;-80
2021/12/13 10:11:46;;;;;;;2.73;1.53;;;;;;;;;;4949081;29;20193;-80
2021/12/13 10:14:13;;;;;;;2.77;1.73;;;;;;;;;;4931990;29;20195;-80
2021/12/13 10:16:39;;;;;;;3.10;1.50;;;;;;;;;;4941350;29;20185;-80
2021/12/13 10:19:08;;;;;;;1.97;1.70;;;;;;;;;;4948243;29;20175;-80
2021/12/13 10:21:36;;;;;;;3.13;2.30;;;;;;;;;;4932589;29;20524;-80
2021/12/13 10:24:07;;;;;;;2.57;1.50;;;;;;;;;;4928880;29;20188;-80
2021/12/13 10:26:35;;;;;;;6.20;4.30;;;;;;;;;;4944865;29;20292;-80
2021/12/13 10:29:02;;;;;;;4.73;3.30;;;;;;;;;;4933697;29;20192;-80
2021/12/13 10:31:33;;;;;;;7.40;4.73;;;;;;;;;;4937770;29;20180;-80
2021/12/13 10:34:00;;;;;;;5.03;3.20;;;;;;;;;;4947908;28;20292;-80
2021/12/13 10:36:28;;;;;;;16.70;9.87;;;;;;;;;;4933960;29;20177;-80
2021/12/13 10:38:55;;;;;;;7.73;5.77;;;;;;;;;;4936374;29;20233;-79
2021/12/13 10:41:23;;;;;;;6.27;3.93;;;;;;;;;;4932203;29;20179;-80
2021/12/13 10:43:50;;;;;;;6.57;4.47;;;;;;;;;;4939598;29;20229;-80
2021/12/13 10:46:25;;;;;;;7.80;5.57;;;;;;;;;;4937952;28;20190;-80
2021/12/13 10:48:53;;;;;;;10.43;6.23;;;;;;;;;;4929948;29;20190;-80
2021/12/13 10:51:22;;;;;;;8.30;4.20;;;;;;;;;;4940019;29;20215;-80
2021/12/13 10:53:48;;;;;;;28.77;14.63;;;;;;;;;;4936340;29;20259;-80
2021/12/13 10:56:16;;;;;;;7.77;4.37;;;;;;;;;;4936401;29;20182;-80
2021/12/13 10:58:43;;;;;;;5.40;2.70;;;;;;;;;;4932030;29;20227;-80
2021/12/13 11:01:14;;;;;;;5.00;3.03;;;;;;;;;;4936850;29;20187;-80
2021/12/13 11:03:40;;;;;;;6.03;3.87;;;;;;;;;;4945208;28;20187;-79
2021/12/13 11:06:08;;;;;;;6.23;3.33;;;;;;;;;;4934088;29;20195;-80
2021/12/13 11:08:33;;;;;;;8.53;3.50;;;;;;;;;;4934554;29;20195;-80
2021/12/13 11:11:07;;;;;;;4.53;3.77;;;;;;;;;;4948762;29;20179;-80
2021/12/13 11:13:34;;;;;;;7.13;3.83;;;;;;;;;;4931985;29;20279;-80
2021/12/13 11:16:01;;;;;;;8.30;5.00;;;;;;;;;;4931682;29;20200;-80
2021/12/13 11:18:28;;;;;;;7.00;3.97;;;;;;;;;;4931116;28;20238;-77
2021/12/13 11:20:55;;;;;;;6.97;3.93;;;;;;;;;;4933152;29;20215;-80
2021/12/13 11:23:22;;;;;;;7.37;3.50;;;;;;;;;;4942811;29;20204;-80
2021/12/13 11:25:51;;;;;;;7.07;4.17;;;;;;;;;;4924591;29;20186;-80
2021/12/13 11:28:16;;;;;;;5.20;3.10;;;;;;;;;;4939661;29;20194;-80
2021/12/13 11:30:42;;;;;;;5.83;3.10;;;;;;;;;;4931745;29;20196;-80
2021/12/13 11:33:26;;;;;;;5.13;2.77;;;;;;;;;;4932476;29;20235;-80
2021/12/13 11:36:02;;;;;;;7.27;4.00;;;;;;;;;;4946004;29;20208;-80
2021/12/13 11:38:42;;;;;;;6.60;2.90;;;;;;;;;;4933271;29;20188;-80
2021/12/13 11:41:30;;;;;;;6.63;2.73;;;;;;;;;;4926055;29;20186;-80
2021/12/13 11:43:56;;;;;;;4.40;2.87;;;;;;;;;;4931196;29;20261;-80
2021/12/13 11:46:33;;;;;;;4.20;3.20;;;;;;;;;;4949023;28;20188;-80
2021/12/13 11:49:17;;;;;;;4.60;3.97;;;;;;;;;;4946524;29;20186;-80
2021/12/13 11:52:02;;;;;;;5.40;3.63;;;;;;;;;;4945204;29;20191;-80
2021/12/13 11:54:36;;;;;;;4.20;3.60;;;;;;;;;;4944085;29;20222;-80
2021/12/13 11:57:18;;;;;;;5.23;4.33;;;;;;;;;;4926481;29;20177;-80
2021/12/13 11:59:43;;;;;;;4.73;3.43;;;;;;;;;;4928393;29;20187;-79
2021/12/13 12:02:27;;;;;;;5.17;3.60;;;;;;;;;;4940174;29;20268;-80
2021/12/13 12:05:11;;;;;;;9.00;5.23;;;;;;;;;;4934737;29;20185;-80
2021/12/13 12:07:39;;;;;;;5.23;4.07;;;;;;;;;;4951393;28;20281;-80
2021/12/13 12:10:10;;;;;;;5.53;3.63;;;;;;;;;;4946996;28;20182;-80
2021/12/13 12:12:51;;;;;;;6.50;4.63;;;;;;;;;;4942112;29;20270;-80
2021/12/13 12:15:17;;;;;;;6.97;4.90;;;;;;;;;;4946358;28;20183;-80
2021/12/13 12:17:43;;;;;;;8.73;5.20;;;;;;;;;;4940994;29;20191;-80
2021/12/13 12:20:10;;;;;;;7.13;4.60;;;;;;;;;;4949164;29;20172;-80
2021/12/13 12:22:48;;;;;;;6.13;4.00;;;;;;;;;;4929277;29;20175;-80
2021/12/13 12:25:14;;;;;;;7.20;4.40;;;;;;;;;;4935817;29;20180;-81
2021/12/13 12:27:39;;;;;;;5.37;4.50;;;;;;;;;;4937466;29;20186;-80
2021/12/13 12:30:07;;;;;;;7.87;5.23;;;;;;;;;;4931485;29;20171;-80
2021/12/13 12:32:36;;;;;;;6.60;4.30;;;;;;;;;;4930151;29;21272;-80
2021/12/13 12:35:01;;;;;;;8.63;5.77;;;;;;;;;;4934365;29;20202;-80
2021/12/13 12:37:33;;;;;;;7.10;4.75;;;;;;;;;;4948385;29;20192;-79
2021/12/13 12:40:08;;;;;;;9.10;6.50;;;;;;;;;;4950160;28;20187;-80
2021/12/13 12:42:33;;;;;;;7.70;5.30;;;;;;;;;;4946953;29;20231;-80
2021/12/13 12:45:01;;;;;;;11.98;6.32;;;;;;;;;;4944832;29;20512;-80
2021/12/13 12:47:29;;;;;;;10.13;5.93;;;;;;;;;;4945079;29;20182;-80
2021/12/13 12:50:10;;;;;;;10.47;6.30;;;;;;;;;;4942403;29;20278;-80
2021/12/13 12:52:45;;;;;;;17.67;9.60;;;;;;;;;;4930004;29;20178;-80
2021/12/13 12:55:14;;;;;;;16.37;9.77;;;;;;;;;;4935275;29;20200;-80
2021/12/13 12:57:39;;;;;;;8.03;6.57;;;;;;;;;;4937223;29;20209;-80
2021/12/13 13:00:05;;;;;;;11.03;6.60;;;;;;;;;;4932876;29;20203;-80
2021/12/13 13:02:31;;;;;;;9.40;6.07;;;;;;;;;;4933751;29;20185;-80
2021/12/13 13:04:58;;;;;;;15.00;11.20;;;;;;;;;;4935630;29;20236;-80
2021/12/13 13:07:28;;;;;;;9.83;7.10;;;;;;;;;;4940576;29;20179;-80
2021/12/13 13:09:56;;;;;;;17.37;12.57;;;;;;;;;;4941227;29;20190;-80
2021/12/13 13:12:28;;;;;;;11.07;4.97;;;;;;;;;;4938537;29;20192;-80
2021/12/13 13:14:55;;;;;;;14.97;9.83;;;;;;;;;;4948027;28;20211;-80
2021/12/13 13:17:22;;;;;;;12.60;6.13;;;;;;;;;;4937335;29;20187;-79
2021/12/13 13:19:47;;;;;;;7.73;5.00;;;;;;;;;;4935830;28;20182;-80
2021/12/13 13:22:23;;;;;;;8.40;4.27;;;;;;;;;;4934413;29;20195;-80
2021/12/13 13:24:51;;;;;;;13.60;4.37;;;;;;;;;;4935732;29;20290;-79
2021/12/13 13:27:17;;;;;;;4.90;3.67;;;;;;;;;;4947748;29;20193;-79
2021/12/13 13:29:43;;;;;;;6.77;4.30;;;;;;;;;;4930270;29;20221;-79
2021/12/13 13:32:10;;;;;;;5.50;4.37;;;;;;;;;;4935992;29;20204;-79
2021/12/13 13:34:38;;;;;;;12.17;10.60;;;;;;;;;;4930477;29;20203;-80
2021/12/13 13:37:19;;;;;;;6.50;4.90;;;;;;;;;;4933160;29;20183;-80
2021/12/13 13:39:52;;;;;;;5.47;4.07;;;;;;;;;;4930692;29;20212;-80
2021/12/13 13:42:19;;;;;;;6.37;4.03;;;;;;;;;;4949118;29;20195;-79
2021/12/13 13:44:56;;;;;;;5.70;4.00;;;;;;;;;;4951080;28;20320;-80
2021/12/13 13:47:29;;;;;;;5.83;3.90;;;;;;;;;;4946664;29;20180;-80
2021/12/13 13:49:55;;;;;;;4.40;3.70;;;;;;;;;;4934504;29;20187;-80
2021/12/13 13:52:22;;;;;;;5.27;4.00;;;;;;;;;;4944386;29;20262;-80
2021/12/13 13:54:51;;;;;;;7.70;4.17;;;;;;;;;;4917238;29;20299;-79
2021/12/13 13:57:18;;;;;;;5.20;4.17;;;;;;;;;;4940497;29;20195;-79
2021/12/13 13:59:46;;;;;;;4.57;3.20;;;;;;;;;;4934366;29;20359;-79
2021/12/13 14:02:14;;;;;;;15.73;11.83;;;;;;;;;;4932754;29;20238;-80
2021/12/13 14:04:43;;;;;;;7.67;4.90;;;;;;;;;;4935718;29;20186;-79
2021/12/13 14:07:13;;;;;;;6.40;4.47;;;;;;;;;;4945858;28;20262;-79
2021/12/13 14:09:42;;;;;;;6.13;4.70;;;;;;;;;;4932031;29;20231;-78
2021/12/13 14:12:21;;;;;;;12.83;7.87;;;;;;;;;;4933303;29;20435;-80
2021/12/13 14:14:48;;;;;;;11.20;8.60;;;;;;;;;;4951125;28;20218;-79
2021/12/13 14:17:14;;;;;;;6.47;4.27;;;;;;;;;;4934213;29;20184;-79
2021/12/13 14:19:41;;;;;;;7.90;6.20;;;;;;;;;;4947922;28;20191;-79
2021/12/13 14:22:07;;;;;;;6.40;5.17;;;;;;;;;;4954755;28;20217;-79
2021/12/13 14:24:32;;;;;;;11.07;5.80;;;;;;;;;;4947221;28;20211;-79
2021/12/13 14:27:13;;;;;;;7.43;4.80;;;;;;;;;;4938568;28;20186;-79
2021/12/13 14:29:38;;;;;;;7.63;6.63;;;;;;;;;;4942425;29;20195;-79
2021/12/13 14:32:07;;;;;;;8.60;5.50;;;;;;;;;;4933806;29;20188;-79
2021/12/13 14:34:35;;;;;;;11.50;6.30;;;;;;;;;;4933064;29;20234;-79
2021/12/13 14:37:01;;;;;;;7.87;6.27;;;;;;;;;;4933255;29;20176;-78
2021/12/13 14:39:32;;;;;;;13.60;8.93;;;;;;;;;;4936076;29;20253;-79
2021/12/13 14:41:57;;;;;;;7.67;5.37;;;;;;;;;;4927182;29;20188;-79
2021/12/13 14:44:34;;;;;;;11.83;7.83;;;;;;;;;;4953122;28;20259;-79
2021/12/13 14:47:07;;;;;;;15.03;11.90;;;;;;;;;;4944487;29;20285;-79
2021/12/13 14:49:44;;;;;;;9.43;7.20;;;;;;;;;;4932922;29;20200;-79
2021/12/13 14:52:20;;;;;;;12.37;7.47;;;;;;;;;;4934229;29;20212;-79
2021/12/13 14:54:47;;;;;;;12.43;7.50;;;;;;;;;;4932612;29;20229;-79
2021/12/13 14:57:14;;;;;;;36.37;6.07;;;;;;;;;;4934516;29;20241;-79
2021/12/13 14:59:51;;;;;;;12.77;5.10;;;;;;;;;;4931251;29;20199;-79